Time;durP1;ratioP1;P1;durP2;ratioP2;P2;SDS_P1;SDS_P2;PMS_P1;PMS_P2;Temp;Humidity;BMP_temperature;BMP_pressure;BME280_temperature;BME280_humidity;BME280_pressure;Samples;Min_cycle;Max_cycle;Signal;HPM_P1;HPM_P2
2021/06/16 00:00:49;;;;;;;9.05;3.10;;;18.80;31.60;;;;;;5102373;28;20389;-82
2021/06/16 00:03:15;;;;;;;9.60;3.00;;;18.80;31.00;;;;;;5097564;28;20769;-83
2021/06/16 00:05:40;;;;;;;9.30;3.03;;;18.60;32.20;;;;;;5098310;28;20382;-83
2021/06/16 00:08:06;;;;;;;9.60;3.40;;;18.50;33.10;;;;;;5097559;28;20474;-84
2021/06/16 00:10:34;;;;;;;3.47;2.80;;;18.40;34.00;;;;;;5097795;28;20393;-81
2021/06/16 00:13:02;;;;;;;8.45;3.40;;;18.30;35.20;;;;;;5097400;28;20401;-83
2021/06/16 00:15:34;;;;;;;5.95;3.13;;;18.30;36.00;;;;;;5096811;28;20412;-84
2021/06/16 00:18:00;;;;;;;5.73;2.80;;;18.30;37.00;;;;;;5100954;28;20408;-82
2021/06/16 00:20:25;;;;;;;10.23;3.83;;;18.40;37.70;;;;;;5100101;28;20414;-83
2021/06/16 00:22:52;;;;;;;8.05;3.00;;;18.30;37.60;;;;;;5099063;28;20382;-83
2021/06/16 00:25:18;;;;;;;9.85;3.58;;;18.50;37.70;;;;;;5099490;28;20393;-84
2021/06/16 00:27:43;;;;;;;7.80;3.50;;;18.40;37.90;;;;;;5101947;28;20879;-82
2021/06/16 00:30:10;;;;;;;6.63;3.10;;;18.40;37.90;;;;;;5106153;28;20394;-84
2021/06/16 00:32:37;;;;;;;4.95;3.30;;;18.30;38.10;;;;;;5107190;28;20812;-85
2021/06/16 00:35:04;;;;;;;7.70;3.00;;;18.30;38.20;;;;;;5110394;28;20378;-84
2021/06/16 00:37:30;;;;;;;9.82;3.90;;;18.20;38.10;;;;;;5114659;28;20463;-82
2021/06/16 00:39:56;;;;;;;6.73;3.23;;;18.00;39.30;;;;;;5117206;28;20394;-84
2021/06/16 00:42:25;;;;;;;9.00;3.50;;;18.00;39.30;;;;;;5118775;28;20386;-82
2021/06/16 00:44:51;;;;;;;6.60;3.20;;;18.20;38.70;;;;;;5108836;28;20449;-85
2021/06/16 00:47:17;;;;;;;6.57;3.50;;;18.10;38.70;;;;;;5111099;28;20470;-84
2021/06/16 00:49:43;;;;;;;9.40;3.70;;;18.10;38.70;;;;;;5107125;28;20397;-85
2021/06/16 00:52:08;;;;;;;5.72;3.22;;;18.10;38.90;;;;;;5106783;28;20382;-84
2021/06/16 00:54:34;;;;;;;7.43;3.47;;;18.00;39.50;;;;;;5107899;28;20393;-83
2021/06/16 00:57:01;;;;;;;6.40;3.60;;;17.90;39.80;;;;;;5105706;28;20401;-82
2021/06/16 00:59:35;;;;;;;7.20;3.30;;;17.80;40.40;;;;;;5109133;28;20377;-83
2021/06/16 01:02:02;;;;;;;7.97;3.15;;;17.90;39.60;;;;;;5109370;28;20382;-83
2021/06/16 01:04:29;;;;;;;10.73;3.65;;;17.80;39.70;;;;;;5112818;28;20382;-83
2021/06/16 01:06:59;;;;;;;6.60;3.20;;;17.70;40.10;;;;;;5116489;28;21158;-82
2021/06/16 01:09:34;;;;;;;10.10;3.70;;;17.90;38.70;;;;;;5114370;28;20402;-82
2021/06/16 01:12:26;;;;;;;7.68;3.63;;;17.90;38.20;;;;;;5113998;28;20477;-83
2021/06/16 01:15:05;;;;;;;10.55;3.45;;;18.00;37.70;;;;;;5113294;28;20458;-80
2021/06/16 01:17:49;;;;;;;8.07;3.60;;;17.90;38.40;;;;;;5111052;28;20870;-82
2021/06/16 01:20:32;;;;;;;9.48;3.72;;;17.90;38.30;;;;;;5110084;28;20378;-83
2021/06/16 01:22:58;;;;;;;9.90;4.00;;;17.90;38.00;;;;;;5109352;28;20389;-85
2021/06/16 01:25:47;;;;;;;7.93;3.67;;;17.80;38.30;;;;;;5109063;28;20397;-83
2021/06/16 01:28:16;;;;;;;6.30;3.40;;;17.80;38.40;;;;;;5108407;28;20417;-84
2021/06/16 01:30:43;;;;;;;6.43;3.50;;;17.60;39.60;;;;;;5108712;28;20481;-85
2021/06/16 01:33:11;;;;;;;8.97;3.40;;;17.50;39.90;;;;;;5102432;28;20458;-85
2021/06/16 01:35:39;;;;;;;7.05;3.70;;;17.50;40.20;;;;;;5107448;28;20382;-85
2021/06/16 01:38:06;;;;;;;4.38;3.10;;;17.50;40.40;;;;;;5107096;28;20405;-85
2021/06/16 01:40:33;;;;;;;11.23;4.20;;;17.50;40.80;;;;;;5110716;28;20389;-82
2021/06/16 01:43:01;;;;;;;6.75;3.75;;;17.70;41.00;;;;;;5114079;28;20375;-82
2021/06/16 01:45:31;;;;;;;7.07;3.65;;;17.60;40.10;;;;;;5115685;28;20354;-82
2021/06/16 01:47:59;;;;;;;7.35;3.65;;;17.50;40.70;;;;;;5115681;28;20370;-82
2021/06/16 01:50:25;;;;;;;7.70;3.60;;;17.30;43.20;;;;;;5093488;28;20412;-81
2021/06/16 01:52:54;;;;;;;5.78;4.20;;;17.30;43.70;;;;;;5091567;28;20397;-82
2021/06/16 01:55:21;;;;;;;9.88;4.30;;;17.40;43.30;;;;;;5107195;28;20394;-82
2021/06/16 01:57:49;;;;;;;8.02;3.50;;;17.50;41.70;;;;;;5108515;28;20465;-82
2021/06/16 02:00:16;;;;;;;10.75;3.80;;;17.60;40.70;;;;;;5110179;28;20389;-83
2021/06/16 02:02:41;;;;;;;4.60;3.60;;;17.60;41.10;;;;;;5109576;28;20382;-83
2021/06/16 02:05:08;;;;;;;9.57;4.00;;;17.60;39.80;;;;;;5105413;28;20843;-83
2021/06/16 02:07:39;;;;;;;9.63;4.35;;;17.60;40.40;;;;;;5102676;28;20764;-82
2021/06/16 02:10:07;;;;;;;9.48;3.88;;;17.50;41.20;;;;;;5098291;28;20390;-82
2021/06/16 02:12:33;;;;;;;8.27;3.55;;;17.50;41.10;;;;;;5092680;28;20399;-81
2021/06/16 02:15:07;;;;;;;10.13;3.78;;;17.50;41.90;;;;;;5115470;28;20370;-80
2021/06/16 02:17:36;;;;;;;7.70;4.50;;;17.40;42.60;;;;;;5115178;28;20402;-86
2021/06/16 02:20:03;;;;;;;15.40;4.50;;;17.40;44.50;;;;;;5114805;28;20386;-84
2021/06/16 02:22:29;;;;;;;13.45;4.68;;;17.40;43.40;;;;;;5114245;28;20543;-83
2021/06/16 02:24:55;;;;;;;10.60;4.20;;;17.30;43.80;;;;;;5094506;28;20384;-84
2021/06/16 02:27:21;;;;;;;15.25;4.88;;;17.20;44.50;;;;;;5091889;28;20375;-81
2021/06/16 02:29:47;;;;;;;14.43;4.90;;;17.30;43.30;;;;;;5084326;28;20391;-84
2021/06/16 02:32:13;;;;;;;11.27;4.70;;;17.40;42.40;;;;;;5086231;28;20390;-83
2021/06/16 02:34:39;;;;;;;12.40;4.40;;;17.60;41.40;;;;;;5105029;28;20755;-83
2021/06/16 02:37:11;;;;;;;12.90;5.20;;;17.50;41.90;;;;;;5106364;28;20402;-82
2021/06/16 02:39:56;;;;;;;10.35;4.32;;;17.50;42.80;;;;;;5103994;28;20397;-79
2021/06/16 02:42:24;;;;;;;9.82;4.40;;;17.40;43.50;;;;;;5105301;28;20386;-81
2021/06/16 02:44:53;;;;;;;10.90;4.65;;;17.30;44.00;;;;;;5106337;28;20390;-83
2021/06/16 02:47:19;;;;;;;10.38;4.40;;;17.30;44.60;;;;;;5105966;28;20974;-83
2021/06/16 02:49:49;;;;;;;9.27;4.00;;;17.30;44.60;;;;;;5105769;28;20390;-81
2021/06/16 02:52:17;;;;;;;7.47;4.17;;;17.30;45.30;;;;;;5107575;28;20394;-82
2021/06/16 02:54:46;;;;;;;5.30;3.80;;;17.30;45.50;;;;;;5105754;28;20411;-83
2021/06/16 02:57:19;;;;;;;8.53;4.10;;;17.20;46.00;;;;;;5109064;28;20394;-79
2021/06/16 02:59:50;;;;;;;10.00;4.30;;;17.10;46.40;;;;;;5108314;28;20402;-83
2021/06/16 03:02:19;;;;;;;13.10;4.03;;;17.20;46.50;;;;;;5107194;28;20398;-83
2021/06/16 03:04:46;;;;;;;10.30;4.53;;;17.20;46.50;;;;;;5094343;28;20474;-83
2021/06/16 03:07:13;;;;;;;10.05;4.57;;;17.30;45.40;;;;;;5092861;28;20778;-81
2021/06/16 03:09:40;;;;;;;4.65;4.00;;;17.40;45.40;;;;;;5078629;28;20884;-82
2021/06/16 03:12:07;;;;;;;6.53;3.80;;;17.30;45.80;;;;;;5085123;28;20409;-84
2021/06/16 03:14:35;;;;;;;9.90;4.20;;;17.40;45.70;;;;;;5092820;28;20853;-85
2021/06/16 03:17:01;;;;;;;6.93;4.07;;;17.40;45.00;;;;;;5092999;28;20422;-84
2021/06/16 03:19:27;;;;;;;10.13;4.90;;;17.30;45.30;;;;;;5092732;28;20409;-84
2021/06/16 03:21:53;;;;;;;10.65;5.63;;;17.30;45.20;;;;;;5092352;28;20414;-85
2021/06/16 03:24:21;;;;;;;8.93;5.80;;;17.50;44.50;;;;;;5090364;28;20426;-86
2021/06/16 03:26:48;;;;;;;8.88;5.20;;;17.60;43.10;;;;;;5093919;28;20390;-85
2021/06/16 03:29:15;;;;;;;8.50;5.28;;;17.50;42.80;;;;;;5101263;28;20412;-84
2021/06/16 03:31:41;;;;;;;11.20;5.10;;;17.50;43.60;;;;;;5106314;28;20386;-85
2021/06/16 03:34:08;;;;;;;8.57;5.38;;;17.40;44.80;;;;;;5111314;28;20378;-81
2021/06/16 03:36:36;;;;;;;11.13;5.07;;;17.30;45.50;;;;;;5108775;28;20405;-84
2021/06/16 03:39:07;;;;;;;12.50;6.40;;;17.40;46.10;;;;;;5107821;28;20382;-83
2021/06/16 03:41:37;;;;;;;18.27;8.98;;;17.20;46.80;;;;;;5107698;28;20382;-84
2021/06/16 03:44:05;;;;;;;10.30;5.90;;;17.40;46.80;;;;;;5106523;28;20383;-84
2021/06/16 03:46:34;;;;;;;9.07;5.28;;;17.50;46.00;;;;;;5107084;28;20382;-83
2021/06/16 03:49:02;;;;;;;17.20;8.35;;;17.60;45.50;;;;;;5087253;28;20387;-83
2021/06/16 03:51:29;;;;;;;11.70;5.95;;;17.70;44.70;;;;;;5107234;28;20421;-83
2021/06/16 03:53:56;;;;;;;15.50;7.95;;;17.70;43.60;;;;;;5111568;28;20395;-84
2021/06/16 03:56:23;;;;;;;15.03;8.43;;;17.80;43.20;;;;;;5103035;28;20417;-77
2021/06/16 03:58:53;;;;;;;10.10;7.00;;;17.80;44.20;;;;;;5102380;28;20392;-77
2021/06/16 04:01:19;;;;;;;11.05;6.55;;;17.80;44.40;;;;;;5102110;28;20475;-77
2021/06/16 04:03:45;;;;;;;12.40;6.20;;;17.80;44.40;;;;;;5102006;28;20381;-77
2021/06/16 04:06:15;;;;;;;15.83;5.93;;;18.00;43.20;;;;;;5104082;28;20392;-77
2021/06/16 04:08:44;;;;;;;11.20;5.45;;;18.30;41.10;;;;;;5108994;28;20449;-77
2021/06/16 04:11:12;;;;;;;9.00;5.88;;;18.50;39.50;;;;;;5108095;28;20407;-81
2021/06/16 04:13:38;;;;;;;12.25;5.60;;;18.70;39.40;;;;;;5086606;28;20438;-83
2021/06/16 04:16:04;;;;;;;11.35;5.78;;;18.50;39.40;;;;;;5087863;28;20399;-83
2021/06/16 04:18:32;;;;;;;16.33;7.90;;;18.60;38.90;;;;;;5094811;28;20394;-84
2021/06/16 04:20:58;;;;;;;14.07;8.15;;;18.50;39.30;;;;;;5100692;28;20390;-85
2021/06/16 04:23:23;;;;;;;9.93;5.30;;;18.50;39.70;;;;;;5103687;28;20427;-85
2021/06/16 04:25:49;;;;;;;12.82;5.47;;;18.60;38.90;;;;;;5102444;28;20381;-84
2021/06/16 04:28:14;;;;;;;11.80;5.47;;;18.50;38.30;;;;;;5101668;28;20386;-85
2021/06/16 04:30:40;;;;;;;15.83;5.60;;;19.10;38.60;;;;;;5102958;28;20374;-82
2021/06/16 04:33:07;;;;;;;11.10;5.47;;;18.50;38.80;;;;;;5099228;28;20386;-83
2021/06/16 04:35:32;;;;;;;12.23;6.25;;;18.50;39.20;;;;;;5102431;28;20386;-83
2021/06/16 04:37:58;;;;;;;16.23;8.00;;;18.60;38.70;;;;;;5107850;28;20435;-82
2021/06/16 04:40:24;;;;;;;16.70;7.70;;;18.60;39.40;;;;;;5110283;28;20389;-82
2021/06/16 04:42:50;;;;;;;18.20;10.77;;;18.80;38.50;;;;;;5109993;28;20453;-82
2021/06/16 04:45:15;;;;;;;22.48;12.95;;;18.90;38.40;;;;;;5113308;28;20378;-82
2021/06/16 04:47:41;;;;;;;14.53;7.80;;;19.00;38.10;;;;;;5111692;28;20386;-84
2021/06/16 04:50:09;;;;;;;19.33;10.23;;;19.10;38.70;;;;;;5112837;28;20401;-82
2021/06/16 04:52:38;;;;;;;10.80;7.80;;;19.20;38.40;;;;;;5110190;28;20382;-81
2021/06/16 04:55:10;;;;;;;12.30;7.00;;;19.30;36.80;;;;;;5108642;28;20439;-85
2021/06/16 04:57:36;;;;;;;18.77;10.40;;;19.60;35.50;;;;;;5107602;28;20402;-84
2021/06/16 05:00:08;;;;;;;12.82;5.60;;;19.70;35.50;;;;;;5110449;28;20388;-83
2021/06/16 05:02:33;;;;;;;18.60;6.70;;;19.90;34.10;;;;;;5109709;28;20392;-82
2021/06/16 05:05:21;;;;;;;20.60;6.80;;;19.90;34.30;;;;;;5109905;28;20421;-84
2021/06/16 05:08:22;;;;;;;14.50;5.97;;;19.90;34.70;;;;;;5107220;28;20413;-82
2021/06/16 05:11:13;;;;;;;13.20;6.07;;;20.00;34.20;;;;;;5091988;28;20438;-82
2021/06/16 05:13:54;;;;;;;19.27;11.48;;;20.10;33.60;;;;;;5085708;28;20406;-83
2021/06/16 05:16:36;;;;;;;12.73;6.00;;;20.10;34.50;;;;;;5110521;28;20782;-82
2021/06/16 05:19:03;;;;;;;23.87;14.00;;;20.00;34.90;;;;;;5105159;28;20382;-82
2021/06/16 05:21:29;;;;;;;18.08;8.35;;;19.90;35.30;;;;;;5097705;28;20396;-82
2021/06/16 05:23:55;;;;;;;8.05;6.10;;;20.10;34.70;;;;;;5087121;28;20415;-82
2021/06/16 05:26:21;;;;;;;8.52;5.80;;;20.30;33.80;;;;;;5095768;28;20405;-79
2021/06/16 05:28:46;;;;;;;35.40;21.17;;;20.50;33.00;;;;;;5088514;28;20876;-80
2021/06/16 05:31:12;;;;;;;24.20;13.83;;;20.40;33.80;;;;;;5084707;28;20397;-82
2021/06/16 05:33:41;;;;;;;23.27;13.03;;;20.40;34.20;;;;;;5095856;28;20471;-83
2021/06/16 05:36:07;;;;;;;12.52;6.40;;;20.50;33.90;;;;;;5101996;28;20397;-80
2021/06/16 05:38:40;;;;;;;12.50;6.53;;;20.60;33.30;;;;;;5093856;28;20404;-81
2021/06/16 05:41:08;;;;;;;20.38;7.60;;;20.70;32.90;;;;;;5085777;28;20395;-83
2021/06/16 05:43:34;;;;;;;27.23;8.10;;;20.70;33.30;;;;;;5083386;28;20430;-82
2021/06/16 05:46:01;;;;;;;32.17;17.27;;;20.70;33.00;;;;;;5096766;28;20398;-82
2021/06/16 05:48:28;;;;;;;17.52;7.10;;;20.60;33.60;;;;;;5104952;28;20426;-79
2021/06/16 05:51:03;;;;;;;12.20;7.53;;;20.80;32.80;;;;;;5112179;28;20450;-84
2021/06/16 05:53:30;;;;;;;14.13;6.90;;;20.80;32.50;;;;;;5112542;28;20374;-83
2021/06/16 05:56:00;;;;;;;12.43;7.07;;;20.90;32.30;;;;;;5089943;28;20499;-82
2021/06/16 05:58:51;;;;;;;14.60;7.10;;;20.90;32.90;;;;;;5103404;28;20379;-83
2021/06/16 06:01:17;;;;;;;14.50;7.00;;;21.00;33.10;;;;;;5097252;28;20376;-84
2021/06/16 06:03:46;;;;;;;14.63;7.05;;;21.00;33.70;;;;;;5105935;28;20398;-82
2021/06/16 06:06:11;;;;;;;18.55;7.50;;;21.00;34.90;;;;;;5112829;28;20390;-82
2021/06/16 06:08:37;;;;;;;19.60;13.87;;;22.50;34.30;;;;;;5100962;28;20406;-82
2021/06/16 06:11:03;;;;;;;44.53;29.93;;;21.10;33.80;;;;;;5106919;28;20486;-82
2021/06/16 06:13:29;;;;;;;19.60;9.30;;;21.20;33.90;;;;;;5099851;28;20451;-82
2021/06/16 06:15:55;;;;;;;37.70;25.90;;;21.20;33.80;;;;;;5104129;28;20902;-80
2021/06/16 06:18:20;;;;;;;22.10;13.33;;;21.40;33.10;;;;;;5096621;28;20485;-80
2021/06/16 06:20:46;;;;;;;13.80;8.52;;;21.40;32.90;;;;;;5094147;28;20386;-81
2021/06/16 06:23:12;;;;;;;13.50;6.70;;;21.60;32.40;;;;;;5092741;28;20398;-82
2021/06/16 06:25:38;;;;;;;12.40;6.60;;;21.90;31.20;;;;;;5097261;28;20481;-81
2021/06/16 06:28:04;;;;;;;15.03;6.83;;;22.00;30.70;;;;;;5098903;28;20397;-80
2021/06/16 06:30:30;;;;;;;17.90;6.83;;;22.20;30.50;;;;;;5090816;28;20872;-81
2021/06/16 06:32:55;;;;;;;14.00;7.23;;;22.30;30.40;;;;;;5097656;28;20417;-83
2021/06/16 06:35:21;;;;;;;15.80;9.70;;;22.30;30.40;;;;;;5101088;28;20415;-81
2021/06/16 06:37:47;;;;;;;16.10;8.02;;;22.30;31.10;;;;;;5093757;28;20461;-78
2021/06/16 06:40:13;;;;;;;12.40;6.77;;;22.30;31.50;;;;;;5102348;28;20435;-80
2021/06/16 06:42:39;;;;;;;17.40;7.60;;;22.80;28.90;;;;;;5105360;28;20392;-77
2021/06/16 06:45:08;;;;;;;11.05;6.80;;;23.20;27.50;;;;;;5099715;28;20406;-78
2021/06/16 06:47:34;;;;;;;14.10;7.38;;;23.50;26.40;;;;;;5085693;28;20401;-77
2021/06/16 06:49:59;;;;;;;15.23;6.60;;;23.60;26.00;;;;;;5092458;28;20923;-75
2021/06/16 06:52:25;;;;;;;17.70;9.50;;;23.60;26.20;;;;;;5092343;28;20425;-76
2021/06/16 06:54:51;;;;;;;14.23;7.10;;;23.70;26.90;;;;;;5083384;28;20394;-75
2021/06/16 06:57:16;;;;;;;16.15;7.43;;;23.60;26.90;;;;;;5087387;28;20466;-78
2021/06/16 06:59:42;;;;;;;13.57;7.00;;;23.50;27.00;;;;;;5098301;28;20382;-75
2021/06/16 07:02:08;;;;;;;11.45;7.00;;;23.60;26.80;;;;;;5091267;28;20393;-78
2021/06/16 07:04:34;;;;;;;14.10;6.57;;;23.60;27.10;;;;;;5097579;28;20932;-78
2021/06/16 07:06:59;;;;;;;13.77;7.22;;;23.60;27.30;;;;;;5091433;28;21561;-79
2021/06/16 07:09:25;;;;;;;14.80;7.33;;;23.70;27.40;;;;;;5083283;28;20413;-77
2021/06/16 07:11:51;;;;;;;14.70;6.97;;;23.70;27.90;;;;;;5089615;28;20840;-78
2021/06/16 07:14:17;;;;;;;9.87;6.80;;;23.70;28.50;;;;;;5096323;28;20477;-79
2021/06/16 07:16:43;;;;;;;11.23;7.30;;;23.90;26.80;;;;;;5098116;28;20479;-79
2021/06/16 07:19:09;;;;;;;10.77;6.63;;;23.90;25.90;;;;;;5097163;28;20394;-77
2021/06/16 07:21:43;;;;;;;9.20;7.05;;;24.00;26.50;;;;;;5099800;28;20406;-80
2021/06/16 07:24:10;;;;;;;13.00;6.75;;;24.00;26.30;;;;;;5098012;28;20749;-78
2021/06/16 07:26:36;;;;;;;10.68;6.90;;;24.10;26.50;;;;;;5095698;28;20433;-77
2021/06/16 07:29:02;;;;;;;14.23;7.15;;;24.20;25.00;;;;;;5098904;28;20393;-79
2021/06/16 07:31:28;;;;;;;9.13;6.97;;;24.10;25.00;;;;;;5100890;28;20400;-77
2021/06/16 07:33:53;;;;;;;9.97;6.60;;;24.10;24.50;;;;;;5095470;28;20402;-74
2021/06/16 07:36:19;;;;;;;11.70;7.43;;;24.20;25.40;;;;;;5084977;28;20504;-76
2021/06/16 07:38:45;;;;;;;9.35;6.50;;;24.30;24.30;;;;;;5094252;28;20397;-75
2021/06/16 07:41:10;;;;;;;11.33;6.70;;;24.20;24.50;;;;;;5093770;28;20475;-76
2021/06/16 07:43:36;;;;;;;8.20;7.40;;;24.40;24.40;;;;;;5094481;28;20956;-74
2021/06/16 07:46:01;;;;;;;9.43;6.68;;;24.50;24.10;;;;;;5093207;28;20381;-76
2021/06/16 07:48:27;;;;;;;15.63;7.20;;;24.60;23.60;;;;;;5094619;28;20397;-76
2021/06/16 07:50:52;;;;;;;11.95;7.90;;;24.70;23.50;;;;;;5093842;28;20739;-75
2021/06/16 07:53:20;;;;;;;14.20;7.40;;;24.70;23.70;;;;;;5094595;28;20388;-76
2021/06/16 07:55:45;;;;;;;12.73;7.50;;;24.80;23.20;;;;;;5093274;28;20382;-76
2021/06/16 07:58:11;;;;;;;10.95;7.22;;;25.00;24.00;;;;;;5085501;28;20428;-77
2021/06/16 08:00:36;;;;;;;11.40;6.97;;;25.20;23.30;;;;;;5088384;28;20414;-75
2021/06/16 08:03:02;;;;;;;12.90;7.40;;;25.30;23.50;;;;;;5088503;28;20483;-77
2021/06/16 08:05:28;;;;;;;11.05;7.65;;;25.20;22.60;;;;;;5080308;28;20745;-78
2021/06/16 08:07:54;;;;;;;15.20;7.63;;;25.20;22.90;;;;;;5086503;28;20402;-79
2021/06/16 08:10:19;;;;;;;13.87;7.43;;;25.30;23.90;;;;;;5081294;28;20388;-79
2021/06/16 08:12:45;;;;;;;14.43;7.73;;;25.60;21.90;;;;;;5080838;28;20434;-79
2021/06/16 08:15:12;;;;;;;17.30;7.80;;;25.70;22.30;;;;;;5081277;28;20391;-77
2021/06/16 08:17:37;;;;;;;16.23;8.20;;;25.70;21.80;;;;;;5091830;28;20404;-77
2021/06/16 08:20:05;;;;;;;15.77;7.87;;;25.70;22.30;;;;;;5088281;28;20402;-79
2021/06/16 08:22:30;;;;;;;16.67;7.70;;;25.90;21.70;;;;;;5077801;28;20446;-79
2021/06/16 08:25:00;;;;;;;14.35;8.52;;;25.90;21.20;;;;;;5071118;28;20608;-77
2021/06/16 08:27:25;;;;;;;10.00;7.53;;;26.00;21.60;;;;;;5078960;28;20954;-78
2021/06/16 08:29:52;;;;;;;13.25;7.80;;;26.00;22.10;;;;;;5073645;28;20471;-76
2021/06/16 08:32:18;;;;;;;14.88;9.43;;;26.00;22.40;;;;;;5072114;28;20852;-77
2021/06/16 08:34:43;;;;;;;12.57;7.80;;;26.10;22.70;;;;;;5070775;28;20409;-79
2021/06/16 08:37:09;;;;;;;13.37;8.50;;;26.10;22.40;;;;;;5069153;28;20491;-77
2021/06/16 08:39:35;;;;;;;13.33;8.83;;;26.10;21.60;;;;;;5076797;28;20399;-82
2021/06/16 08:42:00;;;;;;;11.75;8.13;;;26.20;21.80;;;;;;5071722;28;20402;-82
2021/06/16 08:44:26;;;;;;;13.03;7.90;;;26.20;22.00;;;;;;5078141;28;20392;-84
2021/06/16 08:46:52;;;;;;;16.95;8.55;;;26.20;22.60;;;;;;5078524;28;20388;-82
2021/06/16 08:49:18;;;;;;;12.07;7.72;;;26.30;21.50;;;;;;5081407;28;20403;-82
2021/06/16 08:51:44;;;;;;;15.33;9.10;;;26.40;21.20;;;;;;5077175;28;20449;-80
2021/06/16 08:54:10;;;;;;;16.40;8.80;;;26.60;21.30;;;;;;5064269;28;20393;-80
2021/06/16 08:56:36;;;;;;;9.77;8.83;;;26.60;20.70;;;;;;5058062;28;20407;-77
2021/06/16 08:59:02;;;;;;;14.03;8.43;;;26.80;20.30;;;;;;5064643;28;20419;-77
2021/06/16 09:01:28;;;;;;;16.00;8.60;;;26.80;20.00;;;;;;5070904;28;20387;-77
2021/06/16 09:03:53;;;;;;;15.70;8.50;;;26.80;20.00;;;;;;5060049;28;20459;-77
2021/06/16 09:06:19;;;;;;;13.67;8.93;;;26.90;19.60;;;;;;5066748;28;20461;-77
2021/06/16 09:08:58;;;;;;;11.95;9.50;;;26.90;19.10;;;;;;5071827;28;20453;-77
2021/06/16 09:11:25;;;;;;;14.07;8.90;;;27.00;19.50;;;;;;5083452;22;20435;-75
2021/06/16 09:13:51;;;;;;;12.65;9.13;;;26.90;20.00;;;;;;5069644;28;20392;-76
2021/06/16 09:16:28;;;;;;;12.87;8.90;;;27.00;19.70;;;;;;5063262;28;20393;-78
2021/06/16 09:18:55;;;;;;;10.48;8.55;;;27.20;19.60;;;;;;5070290;28;20487;-77
2021/06/16 09:21:36;;;;;;;14.38;10.15;;;27.30;19.10;;;;;;5054831;28;20392;-77
2021/06/16 09:24:02;;;;;;;11.18;9.05;;;27.40;18.80;;;;;;5054516;28;20426;-76
2021/06/16 09:26:42;;;;;;;10.02;9.00;;;27.50;18.70;;;;;;5064275;28;20400;-78
2021/06/16 09:29:09;;;;;;;12.48;9.30;;;27.60;18.90;;;;;;5063822;28;20478;-78
2021/06/16 09:31:38;;;;;;;12.18;8.57;;;27.60;18.40;;;;;;5070714;28;20886;-80
2021/06/16 09:34:06;;;;;;;13.32;9.75;;;27.40;18.80;;;;;;5069399;28;20396;-76
2021/06/16 09:36:32;;;;;;;10.45;8.82;;;27.40;19.10;;;;;;5050615;28;20453;-75
2021/06/16 09:39:08;;;;;;;14.53;9.00;;;27.50;18.80;;;;;;5070205;28;20392;-76
2021/06/16 09:41:35;;;;;;;13.40;9.27;;;27.40;19.10;;;;;;5059052;28;20428;-76
2021/06/16 09:44:01;;;;;;;12.82;9.30;;;27.50;19.10;;;;;;5064514;28;20406;-74
2021/06/16 09:46:26;;;;;;;13.88;9.82;;;27.90;18.50;;;;;;5059363;28;20411;-78
2021/06/16 09:48:52;;;;;;;12.40;9.17;;;27.90;18.50;;;;;;5072404;28;20518;-76
2021/06/16 09:51:20;;;;;;;12.25;8.80;;;28.00;18.80;;;;;;5078041;28;20483;-76
2021/06/16 09:54:18;;;;;;;12.23;8.95;;;28.10;18.00;;;;;;5066095;28;20428;-76
2021/06/16 09:56:59;;;;;;;10.52;8.90;;;28.40;17.60;;;;;;5057802;28;20408;-78
2021/06/16 09:59:42;;;;;;;15.43;8.70;;;28.70;16.90;;;;;;5048453;28;20403;-76
2021/06/16 10:02:18;;;;;;;9.73;8.55;;;28.70;16.50;;;;;;5068640;28;20378;-78
2021/06/16 10:04:46;;;;;;;9.15;8.10;;;28.70;16.30;;;;;;5056390;28;20423;-77
2021/06/16 10:07:26;;;;;;;10.20;8.43;;;28.70;16.20;;;;;;5072206;28;20420;-79
2021/06/16 10:10:01;;;;;;;9.40;8.40;;;28.90;16.50;;;;;;5074783;28;20391;-79
2021/06/16 10:12:33;;;;;;;9.67;8.67;;;29.00;16.30;;;;;;5071870;28;20487;-78
2021/06/16 10:15:01;;;;;;;10.53;8.23;;;29.20;15.50;;;;;;5067978;28;20401;-78
2021/06/16 10:17:27;;;;;;;9.30;8.30;;;29.20;15.20;;;;;;5061236;28;20405;-79
2021/06/16 10:19:53;;;;;;;11.23;8.40;;;29.10;14.80;;;;;;5077992;28;20395;-79
2021/06/16 10:22:20;;;;;;;11.60;8.40;;;29.10;14.50;;;;;;5070005;28;20873;-76
2021/06/16 10:24:47;;;;;;;12.05;8.70;;;29.20;14.60;;;;;;5066035;28;20413;-79
2021/06/16 10:27:29;;;;;;;11.63;8.10;;;29.20;13.90;;;;;;5070037;28;20430;-78
2021/06/16 10:30:01;;;;;;;10.60;8.30;;;29.20;14.50;;;;;;5095103;28;20374;-78
2021/06/16 10:32:35;;;;;;;11.68;7.72;;;29.40;13.80;;;;;;5076111;28;20396;-77
2021/06/16 10:35:02;;;;;;;14.48;8.45;;;29.40;13.20;;;;;;5062282;28;20487;-79
2021/06/16 10:37:33;;;;;;;11.47;7.70;;;29.40;13.30;;;;;;5071158;28;20410;-77
2021/06/16 10:40:19;;;;;;;9.77;8.32;;;29.50;13.00;;;;;;5079681;28;20520;-79
2021/06/16 10:43:04;;;;;;;10.15;8.73;;;29.60;13.50;;;;;;5058478;28;20395;-78
2021/06/16 10:45:37;;;;;;;11.50;8.20;;;29.60;13.70;;;;;;5062451;28;20384;-78
2021/06/16 10:48:05;;;;;;;12.68;8.95;;;29.70;13.90;;;;;;5071678;28;20404;-78
2021/06/16 10:51:01;;;;;;;14.30;8.50;;;29.80;13.20;;;;;;5054672;28;20405;-77
2021/06/16 10:53:26;;;;;;;10.25;8.10;;;29.80;13.00;;;;;;5062797;28;20403;-78
2021/06/16 10:55:52;;;;;;;8.73;7.93;;;29.80;12.40;;;;;;5074591;28;20398;-78
2021/06/16 10:58:19;;;;;;;12.38;8.63;;;29.60;12.90;;;;;;5064785;28;20743;-78
2021/06/16 11:01:15;;;;;;;11.38;8.23;;;29.60;12.80;;;;;;5048821;28;20403;-77
2021/06/16 11:03:53;;;;;;;12.43;9.30;;;29.60;12.80;;;;;;5042051;28;20388;-77
2021/06/16 11:06:36;;;;;;;10.73;9.10;;;29.50;12.90;;;;;;5052242;28;20387;-77
2021/06/16 11:09:05;;;;;;;11.30;8.55;;;29.60;13.00;;;;;;5060356;28;20914;-77
2021/06/16 11:11:53;;;;;;;9.52;8.40;;;29.60;13.20;;;;;;5056339;28;20735;-77
2021/06/16 11:14:34;;;;;;;11.13;9.17;;;29.40;13.40;;;;;;5051833;28;20413;-74
2021/06/16 11:17:01;;;;;;;14.27;9.55;;;29.40;13.60;;;;;;5055667;28;20481;-74
2021/06/16 11:19:36;;;;;;;10.80;9.00;;;29.60;14.00;;;;;;5050884;28;21057;-76
2021/06/16 11:22:13;;;;;;;11.50;8.73;;;30.00;13.20;;;;;;5056992;28;20391;-77
2021/06/16 11:25:07;;;;;;;10.27;6.83;;;30.00;12.80;;;;;;5071022;28;20484;-78
2021/06/16 11:28:12;;;;;;;7.50;6.50;;;29.90;10.60;;;;;;5058891;28;20487;-78
2021/06/16 11:31:06;;;;;;;10.00;7.28;;;30.10;10.60;;;;;;5054628;28;20396;-79
2021/06/16 11:33:37;;;;;;;11.35;7.70;;;30.20;10.40;;;;;;5085624;28;20394;-78
2021/06/16 11:36:02;;;;;;;10.07;7.55;;;30.20;10.90;;;;;;5091982;28;20378;-78
2021/06/16 11:38:36;;;;;;;10.55;7.63;;;30.30;10.50;;;;;;5074658;28;20419;-78
2021/06/16 11:41:02;;;;;;;8.80;7.17;;;30.50;10.40;;;;;;5071614;28;20478;-78
2021/06/16 11:43:50;;;;;;;11.57;7.00;;;30.50;10.70;;;;;;5056383;28;20392;-77
2021/06/16 11:46:27;;;;;;;7.88;6.32;;;30.60;10.10;;;;;;5066517;28;20495;-77
2021/06/16 11:49:07;;;;;;;9.38;5.90;;;30.60;9.90;;;;;;5068334;28;20464;-78
2021/06/16 11:51:40;;;;;;;8.93;6.55;;;30.80;9.00;;;;;;5091029;28;20404;-77
2021/06/16 11:54:19;;;;;;;8.75;6.50;;;30.90;8.80;;;;;;5062835;28;20837;-77
2021/06/16 11:56:47;;;;;;;9.43;7.03;;;31.10;9.00;;;;;;5051813;28;20914;-76
2021/06/16 11:59:13;;;;;;;7.10;6.40;;;31.20;9.20;;;;;;5069497;28;20394;-78
2021/06/16 12:01:38;;;;;;;8.87;7.73;;;31.20;9.30;;;;;;5069922;28;20376;-78
2021/06/16 12:04:05;;;;;;;8.05;7.25;;;31.10;9.00;;;;;;5065403;28;20391;-78
2021/06/16 12:06:31;;;;;;;14.70;7.53;;;31.20;9.60;;;;;;5054303;28;20494;-78
2021/06/16 12:08:59;;;;;;;8.48;6.35;;;31.30;9.10;;;;;;5073390;28;20403;-78
2021/06/16 12:11:30;;;;;;;6.90;6.00;;;31.50;8.50;;;;;;5072955;28;20403;-76
2021/06/16 12:14:00;;;;;;;9.63;6.20;;;31.60;8.00;;;;;;5074661;28;20448;-78
2021/06/16 12:16:40;;;;;;;10.15;6.63;;;31.60;8.10;;;;;;5075153;28;20538;-78
2021/06/16 12:19:12;;;;;;;10.50;6.72;;;31.60;7.90;;;;;;5071377;28;20451;-76
2021/06/16 12:21:40;;;;;;;10.98;7.28;;;31.60;8.00;;;;;;5071167;28;20504;-78
2021/06/16 12:24:28;;;;;;;10.68;6.50;;;31.80;8.40;;;;;;5071306;28;20783;-75
2021/06/16 12:27:10;;;;;;;9.25;6.65;;;32.10;7.50;;;;;;5058202;28;20495;-76
2021/06/16 12:29:53;;;;;;;10.02;6.90;;;32.20;8.00;;;;;;5047376;28;20399;-76
2021/06/16 12:32:40;;;;;;;8.60;7.10;;;32.20;7.50;;;;;;5069724;28;20393;-76
2021/06/16 12:35:09;;;;;;;9.38;6.70;;;32.00;8.10;;;;;;5053613;28;20396;-76
2021/06/16 12:37:47;;;;;;;7.85;6.80;;;32.00;8.30;;;;;;5053592;28;20463;-77
2021/06/16 12:40:12;;;;;;;10.50;6.80;;;31.90;8.70;;;;;;5055445;28;20470;-76
2021/06/16 12:42:39;;;;;;;10.40;6.70;;;32.10;8.10;;;;;;5072804;28;20483;-75
2021/06/16 12:45:33;;;;;;;9.20;6.90;;;32.00;7.90;;;;;;5073604;28;20372;-76
2021/06/16 12:48:02;;;;;;;8.75;7.35;;;32.20;8.10;;;;;;5072784;28;20873;-77
2021/06/16 12:50:29;;;;;;;7.60;6.87;;;32.20;7.90;;;;;;5072252;28;20423;-76
2021/06/16 12:52:55;;;;;;;9.20;7.55;;;32.30;7.50;;;;;;5072282;28;20388;-76